This is the latest recevied weather packets stored in our database for station/object LRCV. If no packets are shown the sender has not sent any weather packets the latest 10 day(s).
| Time | Temp. | Humidity | Pressure | Rain* | Wind** | Luminosity | Snow |
|---|---|---|---|---|---|---|---|
| 1777940322 | 12.22° C | 72% | 1015 hPa | - | - | - | - |
| 1777939422 | 12.22° C | 72% | 1015 hPa | - | - | - | - |
| 1777938522 | 12.22° C | 72% | 1015 hPa | - | - | - | - |
| 1777937621 | 12.22° C | 72% | 1015 hPa | - | - | - | - |
| 1777936722 | 12.22° C | 72% | 1015 hPa | - | - | - | - |
| 1777935822 | 12.22° C | 72% | 1015 hPa | - | - | - | - |
| 1777934921 | 12.78° C | 67% | 1015 hPa | - | - | - | - |
| 1777934022 | 12.78° C | 67% | 1015 hPa | - | - | - | - |
| 1777933144 | 12.22° C | 72% | 1015 hPa | - | - | - | - |
| 1777932221 | 12.22° C | 72% | 1015 hPa | - | - | - | - |
| 1777931321 | 12.22° C | 72% | 1015 hPa | - | - | - | - |
| 1777930437 | 12.22° C | 72% | 1015 hPa | - | - | - | - |
| 1777929521 | 15° C | 59% | 1015 hPa | - | - | - | - |
| 1777928621 | 15° C | 59% | 1015 hPa | - | - | - | - |
| 1777927721 | 16.11° C | 52% | 1015 hPa | - | - | - | - |
| 1777926823 | 16.11° C | 52% | 1015 hPa | - | - | - | - |
| 1777925921 | 17.22° C | 49% | 1015 hPa | - | - | - | - |
| 1777925022 | 17.22° C | 49% | 1015 hPa | - | - | - | - |
| 1777924122 | 17.78° C | 46% | 1015 hPa | - | - | - | - |
| 1777923222 | 17.78° C | 46% | 1015 hPa | - | - | - | - |
| 1777922321 | 17.22° C | 52% | 1015 hPa | - | - | - | - |
| 1777921422 | 17.22° C | 52% | 1015 hPa | - | - | - | - |
| 1777920522 | 17.22° C | 52% | 1015 hPa | - | - | - | - |
| 1777919632 | 17.22° C | 52% | 1015 hPa | - | - | - | - |
| 1777918722 | 17.78° C | 46% | 1014 hPa | - | - | - | - |
* Rain since midnight (hover to see other rain measurements)
** Current wind speed in m/s (hover to see current wind gust speed)